sensor_id;sensor_type;location;lat;lon;timestamp;pressure;altitude;pressure_sealevel;temperature;humidity
11343;BME280;5726;42.160;24.746;2023-01-25T00:02:04;101050.94;;;4.22;100.00
11343;BME280;5726;42.160;24.746;2023-01-25T00:04:29;101049.00;;;4.04;100.00
11343;BME280;5726;42.160;24.746;2023-01-25T00:06:55;101047.81;;;3.94;100.00
11343;BME280;5726;42.160;24.746;2023-01-25T00:09:22;101050.47;;;3.81;100.00
11343;BME280;5726;42.160;24.746;2023-01-25T00:11:48;101053.88;;;4.01;100.00
11343;BME280;5726;42.160;24.746;2023-01-25T00:14:14;101059.63;;;3.91;100.00
11343;BME280;5726;42.160;24.746;2023-01-25T00:16:40;101059.69;;;3.72;100.00
11343;BME280;5726;42.160;24.746;2023-01-25T00:19:06;101052.28;;;3.93;100.00
11343;BME280;5726;42.160;24.746;2023-01-25T00:21:33;101050.66;;;3.92;100.00
11343;BME280;5726;42.160;24.746;2023-01-25T00:23:59;101039.00;;;3.93;100.00
11343;BME280;5726;42.160;24.746;2023-01-25T00:26:25;101047.38;;;3.90;100.00
11343;BME280;5726;42.160;24.746;2023-01-25T00:28:51;101051.91;;;3.83;100.00
11343;BME280;5726;42.160;24.746;2023-01-25T00:31:31;101046.97;;;3.93;100.00
11343;BME280;5726;42.160;24.746;2023-01-25T00:36:57;101044.53;;;3.85;100.00
11343;BME280;5726;42.160;24.746;2023-01-25T00:39:26;101049.06;;;3.72;100.00
11343;BME280;5726;42.160;24.746;2023-01-25T00:41:52;101051.53;;;3.67;100.00
11343;BME280;5726;42.160;24.746;2023-01-25T00:44:17;101046.16;;;3.93;100.00
11343;BME280;5726;42.160;24.746;2023-01-25T00:46:43;101065.78;;;3.79;100.00
11343;BME280;5726;42.160;24.746;2023-01-25T00:51:44;101057.59;;;3.87;100.00
11343;BME280;5726;42.160;24.746;2023-01-25T00:54:09;101051.88;;;3.90;100.00
11343;BME280;5726;42.160;24.746;2023-01-25T00:56:35;101045.78;;;3.89;100.00
11343;BME280;5726;42.160;24.746;2023-01-25T00:59:00;101064.59;;;3.69;100.00
11343;BME280;5726;42.160;24.746;2023-01-25T01:01:25;101065.81;;;3.53;100.00
11343;BME280;5726;42.160;24.746;2023-01-25T01:03:51;101059.28;;;3.62;100.00
11343;BME280;5726;42.160;24.746;2023-01-25T01:06:17;101053.53;;;3.78;100.00
11343;BME280;5726;42.160;24.746;2023-01-25T01:08:42;101056.00;;;3.73;100.00
11343;BME280;5726;42.160;24.746;2023-01-25T01:11:10;101056.81;;;3.74;100.00
11343;BME280;5726;42.160;24.746;2023-01-25T01:13:36;101055.19;;;3.66;100.00
11343;BME280;5726;42.160;24.746;2023-01-25T01:16:04;101054.75;;;3.76;100.00
11343;BME280;5726;42.160;24.746;2023-01-25T01:18:35;101045.41;;;3.73;100.00
11343;BME280;5726;42.160;24.746;2023-01-25T01:21:01;101034.16;;;3.84;100.00
11343;BME280;5726;42.160;24.746;2023-01-25T01:23:27;101033.28;;;3.96;100.00
11343;BME280;5726;42.160;24.746;2023-01-25T01:25:52;101033.13;;;3.85;100.00
11343;BME280;5726;42.160;24.746;2023-01-25T01:28:18;101031.09;;;3.74;100.00
11343;BME280;5726;42.160;24.746;2023-01-25T01:30:43;101020.88;;;3.84;100.00
11343;BME280;5726;42.160;24.746;2023-01-25T01:33:08;101023.78;;;3.76;100.00
11343;BME280;5726;42.160;24.746;2023-01-25T01:35:34;101021.72;;;3.65;100.00
11343;BME280;5726;42.160;24.746;2023-01-25T01:37:59;101022.53;;;3.72;100.00
11343;BME280;5726;42.160;24.746;2023-01-25T01:40:25;101020.91;;;3.71;100.00
11343;BME280;5726;42.160;24.746;2023-01-25T01:48:13;101019.50;;;3.62;100.00
11343;BME280;5726;42.160;24.746;2023-01-25T01:50:41;101022.13;;;3.75;100.00
11343;BME280;5726;42.160;24.746;2023-01-25T01:53:06;101019.31;;;3.57;100.00
11343;BME280;5726;42.160;24.746;2023-01-25T01:55:33;101009.91;;;3.68;100.00
11343;BME280;5726;42.160;24.746;2023-01-25T01:57:58;101011.31;;;3.77;100.00
11343;BME280;5726;42.160;24.746;2023-01-25T02:00:29;101017.84;;;3.74;100.00
11343;BME280;5726;42.160;24.746;2023-01-25T02:02:57;101023.78;;;3.76;100.00
11343;BME280;5726;42.160;24.746;2023-01-25T02:06:12;101033.50;;;3.95;100.00
11343;BME280;5726;42.160;24.746;2023-01-25T02:08:12;101022.50;;;3.91;100.00
11343;BME280;5726;42.160;24.746;2023-01-25T02:10:41;101017.59;;;3.88;100.00
11343;BME280;5726;42.160;24.746;2023-01-25T02:13:08;101011.50;;;3.81;100.00
11343;BME280;5726;42.160;24.746;2023-01-25T02:15:52;101016.31;;;4.04;100.00
11343;BME280;5726;42.160;24.746;2023-01-25T02:18:20;101019.03;;;3.91;100.00
11343;BME280;5726;42.160;24.746;2023-01-25T02:20:49;101015.13;;;4.00;100.00
11343;BME280;5726;42.160;24.746;2023-01-25T02:25:41;101016.94;;;3.99;100.00
11343;BME280;5726;42.160;24.746;2023-01-25T02:28:12;101018.78;;;3.99;100.00
11343;BME280;5726;42.160;24.746;2023-01-25T02:30:40;101006.41;;;3.80;100.00
11343;BME280;5726;42.160;24.746;2023-01-25T02:33:06;101010.25;;;3.90;100.00
11343;BME280;5726;42.160;24.746;2023-01-25T02:38:34;101009.81;;;3.93;100.00
11343;BME280;5726;42.160;24.746;2023-01-25T02:41:06;101009.44;;;3.90;100.00
11343;BME280;5726;42.160;24.746;2023-01-25T02:43:33;101013.31;;;3.94;100.00
11343;BME280;5726;42.160;24.746;2023-01-25T02:46:03;101013.13;;;3.82;100.00
11343;BME280;5726;42.160;24.746;2023-01-25T02:48:35;101011.53;;;3.75;100.00
11343;BME280;5726;42.160;24.746;2023-01-25T02:51:01;101014.72;;;3.96;100.00
11343;BME280;5726;42.160;24.746;2023-01-25T02:53:26;101009.41;;;3.96;100.00
11343;BME280;5726;42.160;24.746;2023-01-25T02:55:52;101018.78;;;3.99;100.00
11343;BME280;5726;42.160;24.746;2023-01-25T02:58:17;101001.63;;;4.08;100.00
11343;BME280;5726;42.160;24.746;2023-01-25T03:00:42;101015.47;;;4.10;100.00
11343;BME280;5726;42.160;24.746;2023-01-25T03:03:08;101010.78;;;4.05;100.00
11343;BME280;5726;42.160;24.746;2023-01-25T03:05:33;101024.81;;;4.19;100.00
11343;BME280;5726;42.160;24.746;2023-01-25T03:07:59;101011.00;;;4.04;100.00
11343;BME280;5726;42.160;24.746;2023-01-25T03:10:24;101025.16;;;3.91;100.00
11343;BME280;5726;42.160;24.746;2023-01-25T03:12:49;101022.00;;;4.14;100.00
11343;BME280;5726;42.160;24.746;2023-01-25T03:15:15;101020.19;;;4.08;100.00
11343;BME280;5726;42.160;24.746;2023-01-25T03:17:40;101011.88;;;3.91;100.00
11343;BME280;5726;42.160;24.746;2023-01-25T03:20:06;101010.16;;;4.16;100.00
11343;BME280;5726;42.160;24.746;2023-01-25T03:22:31;101015.94;;;4.00;100.00
11343;BME280;5726;42.160;24.746;2023-01-25T03:24:57;101012.13;;;3.83;100.00
11343;BME280;5726;42.160;24.746;2023-01-25T03:27:22;100999.28;;;3.80;100.00
11343;BME280;5726;42.160;24.746;2023-01-25T03:29:48;100996.06;;;3.66;100.00
11343;BME280;5726;42.160;24.746;2023-01-25T03:32:13;101009.09;;;3.67;100.00
11343;BME280;5726;42.160;24.746;2023-01-25T03:34:39;101012.16;;;3.64;100.00
11343;BME280;5726;42.160;24.746;2023-01-25T03:37:04;101013.13;;;3.82;100.00
11343;BME280;5726;42.160;24.746;2023-01-25T03:39:29;101009.06;;;3.80;100.00
11343;BME280;5726;42.160;24.746;2023-01-25T03:41:55;101006.81;;;3.77;100.00
11343;BME280;5726;42.160;24.746;2023-01-25T03:44:20;101011.34;;;3.70;100.00
11343;BME280;5726;42.160;24.746;2023-01-25T03:46:46;101009.66;;;3.88;100.00
11343;BME280;5726;42.160;24.746;2023-01-25T03:49:11;101011.06;;;3.91;100.00
11343;BME280;5726;42.160;24.746;2023-01-25T03:51:37;101017.38;;;3.96;100.00
11343;BME280;5726;42.160;24.746;2023-01-25T03:54:02;101014.72;;;4.03;100.00
11343;BME280;5726;42.160;24.746;2023-01-25T03:56:28;101015.34;;;3.92;100.00
11343;BME280;5726;42.160;24.746;2023-01-25T03:58:53;101010.47;;;3.82;100.00
11343;BME280;5726;42.160;24.746;2023-01-25T04:01:19;101018.81;;;3.86;100.00
11343;BME280;5726;42.160;24.746;2023-01-25T04:03:44;101018.66;;;3.81;100.00
11343;BME280;5726;42.160;24.746;2023-01-25T04:06:10;101024.13;;;3.86;100.00
11343;BME280;5726;42.160;24.746;2023-01-25T04:08:35;101017.84;;;3.74;100.00
11343;BME280;5726;42.160;24.746;2023-01-25T04:11:06;101021.94;;;3.70;100.00
11343;BME280;5726;42.160;24.746;2023-01-25T04:13:33;101020.50;;;3.80;100.00
11343;BME280;5726;42.160;24.746;2023-01-25T04:16:06;101018.47;;;3.76;100.00
11343;BME280;5726;42.160;24.746;2023-01-25T04:18:32;101022.53;;;3.85;100.00
11343;BME280;5726;42.160;24.746;2023-01-25T04:20:57;101023.69;;;4.02;100.00
11343;BME280;5726;42.160;24.746;2023-01-25T04:23:24;101027.78;;;3.91;100.00
11343;BME280;5726;42.160;24.746;2023-01-25T04:25:54;101027.81;;;3.85;100.00
11343;BME280;5726;42.160;24.746;2023-01-25T04:28:21;101022.53;;;3.85;100.00
11343;BME280;5726;42.160;24.746;2023-01-25T04:30:47;101020.47;;;3.87;100.00
11343;BME280;5726;42.160;24.746;2023-01-25T04:33:13;101028.19;;;3.95;100.00
11343;BME280;5726;42.160;24.746;2023-01-25T04:35:38;101035.16;;;3.89;100.00
11343;BME280;5726;42.160;24.746;2023-01-25T04:38:04;101021.50;;;3.79;100.00
11343;BME280;5726;42.160;24.746;2023-01-25T04:40:29;101025.44;;;3.64;100.00
11343;BME280;5726;42.160;24.746;2023-01-25T04:42:55;101025.63;;;3.69;100.00
11343;BME280;5726;42.160;24.746;2023-01-25T04:45:22;101031.53;;;3.65;100.00
11343;BME280;5726;42.160;24.746;2023-01-25T04:47:49;101036.81;;;3.71;100.00
11343;BME280;5726;42.160;24.746;2023-01-25T04:50:14;101029.47;;;3.67;100.00
11343;BME280;5726;42.160;24.746;2023-01-25T04:52:40;101029.88;;;3.77;100.00
11343;BME280;5726;42.160;24.746;2023-01-25T04:55:06;101041.31;;;3.71;100.00
11343;BME280;5726;42.160;24.746;2023-01-25T04:57:31;101031.34;;;3.66;100.00
11343;BME280;5726;42.160;24.746;2023-01-25T04:59:57;101022.16;;;3.62;100.00
11343;BME280;5726;42.160;24.746;2023-01-25T05:02:23;101023.38;;;3.53;100.00
11343;BME280;5726;42.160;24.746;2023-01-25T05:04:48;101034.78;;;3.73;100.00
11343;BME280;5726;42.160;24.746;2023-01-25T05:07:13;101016.00;;;3.68;100.00
11343;BME280;5726;42.160;24.746;2023-01-25T05:09:39;101037.03;;;3.70;100.00
11343;BME280;5726;42.160;24.746;2023-01-25T05:12:04;101031.72;;;3.76;100.00
11343;BME280;5726;42.160;24.746;2023-01-25T05:14:36;101034.00;;;3.60;100.00
11343;BME280;5726;42.160;24.746;2023-01-25T05:17:03;101041.75;;;3.48;100.00
11343;BME280;5726;42.160;24.746;2023-01-25T05:19:29;101044.19;;;3.56;100.00
11343;BME280;5726;42.160;24.746;2023-01-25T05:21:54;101043.59;;;3.54;100.00
11343;BME280;5726;42.160;24.746;2023-01-25T05:24:23;101053.38;;;3.54;100.00
11343;BME280;5726;42.160;24.746;2023-01-25T05:26:49;101038.88;;;3.56;100.00
11343;BME280;5726;42.160;24.746;2023-01-25T05:29:41;101043.00;;;3.52;100.00
11343;BME280;5726;42.160;24.746;2023-01-25T05:32:15;101055.63;;;3.63;100.00
11343;BME280;5726;42.160;24.746;2023-01-25T05:34:41;101057.25;;;3.51;100.00
11343;BME280;5726;42.160;24.746;2023-01-25T05:37:07;101043.19;;;3.51;100.00
11343;BME280;5726;42.160;24.746;2023-01-25T05:39:33;101045.84;;;3.44;100.00
11343;BME280;5726;42.160;24.746;2023-01-25T05:41:59;101047.47;;;3.45;100.00
11343;BME280;5726;42.160;24.746;2023-01-25T05:44:25;101052.56;;;3.53;100.00
11343;BME280;5726;42.160;24.746;2023-01-25T05:46:51;101060.50;;;3.53;100.00
11343;BME280;5726;42.160;24.746;2023-01-25T05:49:17;101058.66;;;3.67;100.00
11343;BME280;5726;42.160;24.746;2023-01-25T05:51:43;101044.06;;;4.08;100.00
11343;BME280;5726;42.160;24.746;2023-01-25T05:54:12;101050.47;;;3.81;100.00
11343;BME280;5726;42.160;24.746;2023-01-25T05:56:38;101056.44;;;3.70;100.00
11343;BME280;5726;42.160;24.746;2023-01-25T05:59:04;101055.00;;;3.68;100.00
11343;BME280;5726;42.160;24.746;2023-01-25T06:01:29;101053.16;;;3.68;100.00
11343;BME280;5726;42.160;24.746;2023-01-25T06:03:55;101059.28;;;3.62;100.00
11343;BME280;5726;42.160;24.746;2023-01-25T06:06:21;101055.00;;;3.61;100.00
11343;BME280;5726;42.160;24.746;2023-01-25T06:08:48;101059.06;;;3.70;100.00
11343;BME280;5726;42.160;24.746;2023-01-25T06:11:17;101056.69;;;4.19;100.00
11343;BME280;5726;42.160;24.746;2023-01-25T06:13:43;101050.84;;;4.47;100.00
11343;BME280;5726;42.160;24.746;2023-01-25T06:16:09;101055.84;;;4.99;100.00
11343;BME280;5726;42.160;24.746;2023-01-25T06:18:35;101056.06;;;4.60;100.00
11343;BME280;5726;42.160;24.746;2023-01-25T06:21:02;101070.19;;;4.11;100.00
11343;BME280;5726;42.160;24.746;2023-01-25T06:23:27;101064.50;;;4.01;100.00
11343;BME280;5726;42.160;24.746;2023-01-25T06:26:00;101057.38;;;3.95;100.00
11343;BME280;5726;42.160;24.746;2023-01-25T06:28:28;101056.75;;;4.06;100.00
11343;BME280;5726;42.160;24.746;2023-01-25T06:30:53;101063.94;;;3.92;100.00
11343;BME280;5726;42.160;24.746;2023-01-25T06:33:19;101072.72;;;3.80;100.00
11343;BME280;5726;42.160;24.746;2023-01-25T06:35:44;101059.66;;;3.85;100.00
11343;BME280;5726;42.160;24.746;2023-01-25T06:38:10;101067.41;;;3.80;100.00
11343;BME280;5726;42.160;24.746;2023-01-25T06:40:35;101056.59;;;3.88;100.00
11343;BME280;5726;42.160;24.746;2023-01-25T06:43:08;101060.44;;;3.92;100.00
11343;BME280;5726;42.160;24.746;2023-01-25T06:45:34;101050.31;;;3.63;100.00
11343;BME280;5726;42.160;24.746;2023-01-25T06:47:59;101057.19;;;3.90;100.00
11343;BME280;5726;42.160;24.746;2023-01-25T06:50:25;101061.22;;;4.05;100.00
11343;BME280;5726;42.160;24.746;2023-01-25T06:52:52;101058.81;;;3.84;100.00
11343;BME280;5726;42.160;24.746;2023-01-25T06:55:17;101061.09;;;3.81;100.00
11343;BME280;5726;42.160;24.746;2023-01-25T06:57:43;101060.06;;;3.88;100.00
11343;BME280;5726;42.160;24.746;2023-01-25T07:00:09;101058.03;;;3.84;100.00
11343;BME280;5726;42.160;24.746;2023-01-25T07:02:35;101055.59;;;3.76;100.00
11343;BME280;5726;42.160;24.746;2023-01-25T07:05:01;101065.31;;;3.95;100.00
11343;BME280;5726;42.160;24.746;2023-01-25T07:07:26;101060.22;;;4.00;100.00
11343;BME280;5726;42.160;24.746;2023-01-25T07:09:51;101065.31;;;3.95;100.00
11343;BME280;5726;42.160;24.746;2023-01-25T07:12:17;101076.16;;;3.87;100.00
11343;BME280;5726;42.160;24.746;2023-01-25T07:14:44;101072.31;;;3.77;100.00
11343;BME280;5726;42.160;24.746;2023-01-25T07:17:12;101072.28;;;3.83;100.00
11343;BME280;5726;42.160;24.746;2023-01-25T07:19:38;101075.59;;;3.72;100.00
11343;BME280;5726;42.160;24.746;2023-01-25T07:22:03;101067.41;;;3.80;100.00
11343;BME280;5726;42.160;24.746;2023-01-25T07:24:29;101085.78;;;3.88;100.00
11343;BME280;5726;42.160;24.746;2023-01-25T07:26:54;101059.28;;;3.69;100.00
11343;BME280;5726;42.160;24.746;2023-01-25T07:29:20;101082.31;;;3.68;100.00
11343;BME280;5726;42.160;24.746;2023-01-25T07:31:45;101080.47;;;3.88;100.00
11343;BME280;5726;42.160;24.746;2023-01-25T07:34:12;101088.22;;;3.83;100.00
11343;BME280;5726;42.160;24.746;2023-01-25T07:36:38;101077.00;;;3.68;100.00
11343;BME280;5726;42.160;24.746;2023-01-25T07:39:04;101073.16;;;3.71;100.00
11343;BME280;5726;42.160;24.746;2023-01-25T07:41:29;101086.56;;;3.88;100.00
11343;BME280;5726;42.160;24.746;2023-01-25T07:43:56;101079.22;;;3.97;100.00
11343;BME280;5726;42.160;24.746;2023-01-25T07:46:22;101083.69;;;3.96;100.00
11343;BME280;5726;42.160;24.746;2023-01-25T07:48:49;101085.13;;;3.99;100.00
11343;BME280;5726;42.160;24.746;2023-01-25T07:51:16;101083.53;;;3.85;100.00
11343;BME280;5726;42.160;24.746;2023-01-25T07:54:02;101080.47;;;3.81;100.00
11343;BME280;5726;42.160;24.746;2023-01-25T07:56:31;101082.72;;;3.91;100.00
11343;BME280;5726;42.160;24.746;2023-01-25T07:58:58;101083.91;;;3.95;100.00
11343;BME280;5726;42.160;24.746;2023-01-25T08:01:26;101088.84;;;3.78;100.00
11343;BME280;5726;42.160;24.746;2023-01-25T08:03:52;101080.06;;;3.91;100.00
11343;BME280;5726;42.160;24.746;2023-01-25T08:06:25;101089.03;;;3.90;100.00
11343;BME280;5726;42.160;24.746;2023-01-25T08:08:55;101086.28;;;4.16;100.00
11343;BME280;5726;42.160;24.746;2023-01-25T08:11:24;101086.50;;;4.14;100.00
11343;BME280;5726;42.160;24.746;2023-01-25T08:13:49;101095.31;;;4.02;100.00
11343;BME280;5726;42.160;24.746;2023-01-25T08:16:16;101081.06;;;3.90;100.00
11343;BME280;5726;42.160;24.746;2023-01-25T08:18:46;101075.56;;;3.78;100.00
11343;BME280;5726;42.160;24.746;2023-01-25T08:21:11;101084.53;;;3.97;100.00
11343;BME280;5726;42.160;24.746;2023-01-25T08:23:37;101092.13;;;3.68;100.00
11343;BME280;5726;42.160;24.746;2023-01-25T08:26:06;101085.38;;;3.78;100.00
11343;BME280;5726;42.160;24.746;2023-01-25T08:28:32;101079.84;;;3.86;100.00
11343;BME280;5726;42.160;24.746;2023-01-25T08:31:15;101094.31;;;4.03;100.00
11343;BME280;5726;42.160;24.746;2023-01-25T08:33:41;101091.84;;;3.95;100.00
11343;BME280;5726;42.160;24.746;2023-01-25T08:36:09;101079.84;;;3.92;100.00
11343;BME280;5726;42.160;24.746;2023-01-25T08:38:35;101078.84;;;3.80;100.00
11343;BME280;5726;42.160;24.746;2023-01-25T08:41:06;101080.06;;;3.78;100.00
11343;BME280;5726;42.160;24.746;2023-01-25T08:43:32;101101.69;;;3.88;100.00
11343;BME280;5726;42.160;24.746;2023-01-25T08:45:57;101088.47;;;3.69;100.00
11343;BME280;5726;42.160;24.746;2023-01-25T08:48:23;101089.03;;;3.90;100.00
11343;BME280;5726;42.160;24.746;2023-01-25T08:50:48;101088.59;;;3.99;100.00
11343;BME280;5726;42.160;24.746;2023-01-25T08:53:13;101077.59;;;3.96;100.00
11343;BME280;5726;42.160;24.746;2023-01-25T08:55:39;101084.31;;;3.98;100.00
11343;BME280;5726;42.160;24.746;2023-01-25T08:58:09;101084.72;;;3.95;100.00
11343;BME280;5726;42.160;24.746;2023-01-25T09:00:37;101083.72;;;3.90;100.00
11343;BME280;5726;42.160;24.746;2023-01-25T09:03:02;101080.47;;;3.88;100.00
11343;BME280;5726;42.160;24.746;2023-01-25T09:05:28;101083.72;;;3.77;100.00
11343;BME280;5726;42.160;24.746;2023-01-25T09:07:53;101072.72;;;3.80;100.00
11343;BME280;5726;42.160;24.746;2023-01-25T09:10:18;101071.25;;;3.97;100.00
11343;BME280;5726;42.160;24.746;2023-01-25T09:12:44;101059.25;;;3.75;100.00
11343;BME280;5726;42.160;24.746;2023-01-25T09:15:09;101058.41;;;3.87;100.00
11343;BME280;5726;42.160;24.746;2023-01-25T09:17:35;101054.69;;;4.08;100.00
11343;BME280;5726;42.160;24.746;2023-01-25T09:20:05;101056.88;;;4.17;100.00
11343;BME280;5726;42.160;24.746;2023-01-25T09:22:31;101063.22;;;4.23;100.00
11343;BME280;5726;42.160;24.746;2023-01-25T09:24:56;101061.34;;;4.29;100.00
11343;BME280;5726;42.160;24.746;2023-01-25T09:27:21;101053.38;;;4.29;100.00
11343;BME280;5726;42.160;24.746;2023-01-25T09:29:47;101068.28;;;4.30;100.00
11343;BME280;5726;42.160;24.746;2023-01-25T09:32:12;101053.09;;;4.44;100.00
11343;BME280;5726;42.160;24.746;2023-01-25T09:34:38;101054.81;;;4.26;100.00
11343;BME280;5726;42.160;24.746;2023-01-25T09:37:03;101050.97;;;4.15;100.00
11343;BME280;5726;42.160;24.746;2023-01-25T09:39:29;101036.00;;;4.33;100.00
11343;BME280;5726;42.160;24.746;2023-01-25T09:47:31;101026.94;;;4.04;100.00
11343;BME280;5726;42.160;24.746;2023-01-25T09:55:17;101014.38;;;4.30;100.00
11343;BME280;5726;42.160;24.746;2023-01-25T09:57:45;101028.28;;;4.26;100.00
11343;BME280;5726;42.160;24.746;2023-01-25T10:00:18;101022.41;;;4.11;100.00
11343;BME280;5726;42.160;24.746;2023-01-25T10:02:56;101002.84;;;4.05;100.00
11343;BME280;5726;42.160;24.746;2023-01-25T10:05:29;101005.06;;;4.15;100.00
11343;BME280;5726;42.160;24.746;2023-01-25T10:10:45;100995.47;;;4.14;100.00
11343;BME280;5726;42.160;24.746;2023-01-25T10:13:22;100989.59;;;4.42;100.00
11343;BME280;5726;42.160;24.746;2023-01-25T10:15:51;100997.75;;;4.47;100.00
11343;BME280;5726;42.160;24.746;2023-01-25T10:18:25;101002.66;;;4.44;100.00
11343;BME280;5726;42.160;24.746;2023-01-25T10:20:57;100995.00;;;4.23;100.00
11343;BME280;5726;42.160;24.746;2023-01-25T10:26:24;100969.91;;;4.56;100.00
11343;BME280;5726;42.160;24.746;2023-01-25T10:37:01;100962.44;;;4.40;100.00
11343;BME280;5726;42.160;24.746;2023-01-25T10:39:31;100945.28;;;4.43;100.00
11343;BME280;5726;42.160;24.746;2023-01-25T10:42:01;100952.28;;;4.62;100.00
11343;BME280;5726;42.160;24.746;2023-01-25T10:44:29;100950.81;;;4.41;100.00
11343;BME280;5726;42.160;24.746;2023-01-25T10:47:04;100944.16;;;4.57;100.00
11343;BME280;5726;42.160;24.746;2023-01-25T10:54:41;100933.22;;;4.40;100.00
11343;BME280;5726;42.160;24.746;2023-01-25T10:57:08;100941.50;;;4.57;100.00
11343;BME280;5726;42.160;24.746;2023-01-25T10:59:36;100939.00;;;4.62;100.00
11343;BME280;5726;42.160;24.746;2023-01-25T11:03:05;100926.28;;;4.39;100.00
11343;BME280;5726;42.160;24.746;2023-01-25T11:07:55;100920.59;;;4.67;100.00
11343;BME280;5726;42.160;24.746;2023-01-25T11:10:35;100915.88;;;4.69;100.00
11343;BME280;5726;42.160;24.746;2023-01-25T11:13:18;100913.56;;;4.48;100.00
11343;BME280;5726;42.160;24.746;2023-01-25T11:16:36;100909.75;;;4.68;100.00
11343;BME280;5726;42.160;24.746;2023-01-25T11:18:35;100914.63;;;4.71;100.00
11343;BME280;5726;42.160;24.746;2023-01-25T11:23:29;100903.78;;;4.97;100.00
11343;BME280;5726;42.160;24.746;2023-01-25T11:26:14;100881.22;;;4.81;100.00
11343;BME280;5726;42.160;24.746;2023-01-25T11:28:40;100893.53;;;4.76;100.00
11343;BME280;5726;42.160;24.746;2023-01-25T11:31:13;100885.66;;;4.63;100.00
11343;BME280;5726;42.160;24.746;2023-01-25T11:33:40;100885.06;;;4.85;100.00
11343;BME280;5726;42.160;24.746;2023-01-25T11:36:19;100878.75;;;4.62;100.00
11343;BME280;5726;42.160;24.746;2023-01-25T11:39:15;100876.88;;;4.87;100.00
11343;BME280;5726;42.160;24.746;2023-01-25T11:55:50;100863.88;;;4.79;100.00
11343;BME280;5726;42.160;24.746;2023-01-25T12:04:19;100845.06;;;4.80;100.00
11343;BME280;5726;42.160;24.746;2023-01-25T12:07:03;100846.16;;;4.73;100.00
11343;BME280;5726;42.160;24.746;2023-01-25T12:15:41;100833.22;;;5.01;100.00
11343;BME280;5726;42.160;24.746;2023-01-25T12:21:02;100829.47;;;4.84;100.00
11343;BME280;5726;42.160;24.746;2023-01-25T12:29:04;100818.94;;;4.77;100.00
11343;BME280;5726;42.160;24.746;2023-01-25T12:31:59;100809.50;;;4.81;100.00
11343;BME280;5726;42.160;24.746;2023-01-25T12:34:32;100817.53;;;4.93;100.00
11343;BME280;5726;42.160;24.746;2023-01-25T12:37:06;100809.78;;;4.91;100.00
11343;BME280;5726;42.160;24.746;2023-01-25T12:39:49;100811.63;;;4.91;100.00
11343;BME280;5726;42.160;24.746;2023-01-25T12:42:24;100807.78;;;5.05;100.00
11343;BME280;5726;42.160;24.746;2023-01-25T12:47:43;100806.47;;;5.14;100.00
11343;BME280;5726;42.160;24.746;2023-01-25T12:50:17;100811.34;;;5.17;100.00
11343;BME280;5726;42.160;24.746;2023-01-25T12:52:48;100811.56;;;4.97;100.00
11343;BME280;5726;42.160;24.746;2023-01-25T12:55:16;100809.66;;;5.04;100.00
11343;BME280;5726;42.160;24.746;2023-01-25T12:58:03;100813.63;;;4.95;100.00
11343;BME280;5726;42.160;24.746;2023-01-25T13:00:43;100807.22;;;5.03;100.00
11343;BME280;5726;42.160;24.746;2023-01-25T13:06:37;100796.00;;;4.83;100.00
11343;BME280;5726;42.160;24.746;2023-01-25T13:11:49;100800.44;;;5.07;100.00
11343;BME280;5726;42.160;24.746;2023-01-25T13:16:44;100787.84;;;4.78;100.00
11343;BME280;5726;42.160;24.746;2023-01-25T13:21:54;100792.69;;;4.63;100.00
11343;BME280;5726;42.160;24.746;2023-01-25T13:24:30;100787.16;;;4.65;100.00
11343;BME280;5726;42.160;24.746;2023-01-25T13:27:03;100784.16;;;4.79;100.00
11343;BME280;5726;42.160;24.746;2023-01-25T13:32:01;100786.25;;;4.95;100.00
11343;BME280;5726;42.160;24.746;2023-01-25T13:37:12;100776.72;;;4.87;100.00
11343;BME280;5726;42.160;24.746;2023-01-25T13:39:50;100785.19;;;4.96;100.00
11343;BME280;5726;42.160;24.746;2023-01-25T13:42:24;100783.22;;;4.91;100.00
11343;BME280;5726;42.160;24.746;2023-01-25T13:44:53;100784.31;;;4.84;100.00
11343;BME280;5726;42.160;24.746;2023-01-25T13:47:22;100787.72;;;4.91;100.00
11343;BME280;5726;42.160;24.746;2023-01-25T13:52:23;100791.97;;;5.10;100.00
11343;BME280;5726;42.160;24.746;2023-01-25T13:54:54;100785.56;;;5.17;100.00
11343;BME280;5726;42.160;24.746;2023-01-25T13:57:30;100788.03;;;5.01;100.00
11343;BME280;5726;42.160;24.746;2023-01-25T14:00:00;100794.50;;;5.05;100.00
11343;BME280;5726;42.160;24.746;2023-01-25T14:02:27;100796.41;;;5.16;100.00
11343;BME280;5726;42.160;24.746;2023-01-25T14:04:53;100791.53;;;5.13;100.00
11343;BME280;5726;42.160;24.746;2023-01-25T14:07:21;100785.94;;;5.03;100.00
11343;BME280;5726;42.160;24.746;2023-01-25T14:09:49;100785.94;;;5.21;100.00
11343;BME280;5726;42.160;24.746;2023-01-25T14:12:37;100781.97;;;5.12;100.00
11343;BME280;5726;42.160;24.746;2023-01-25T14:15:22;100789.75;;;5.24;100.00
11343;BME280;5726;42.160;24.746;2023-01-25T14:20:36;100784.03;;;4.92;100.00
11343;BME280;5726;42.160;24.746;2023-01-25T14:23:01;100784.75;;;4.99;100.00
11343;BME280;5726;42.160;24.746;2023-01-25T14:25:28;100782.09;;;4.81;100.00
11343;BME280;5726;42.160;24.746;2023-01-25T14:27:59;100784.63;;;4.76;100.00
11343;BME280;5726;42.160;24.746;2023-01-25T14:30:27;100781.59;;;4.90;100.00
11343;BME280;5726;42.160;24.746;2023-01-25T14:32:59;100784.75;;;5.17;100.00
11343;BME280;5726;42.160;24.746;2023-01-25T14:35:31;100781.75;;;5.13;100.00
11343;BME280;5726;42.160;24.746;2023-01-25T14:37:57;100785.28;;;5.07;100.00
11343;BME280;5726;42.160;24.746;2023-01-25T14:40:25;100787.59;;;5.04;100.00
11343;BME280;5726;42.160;24.746;2023-01-25T14:42:53;100790.38;;;5.26;100.00
11343;BME280;5726;42.160;24.746;2023-01-25T14:45:20;100783.16;;;4.80;100.00
11343;BME280;5726;42.160;24.746;2023-01-25T14:47:48;100781.38;;;4.74;100.00